Startpagina
METAR-TAF:

METAR-TAF

Vliegvelden :

Mönchengladbach, Duitsland

Flughafen Mönchengladbach

breedte: 51-13-49N, lengte: 006-30-16E, hoogte: 38 m

Actueel weer

Dit bericht is 19 minuten geleden gemaakt, om 12:50 UTC
Wind 9 kt uit het westen, variërend tussen het westzuidwesten en het noordwesten
Temperatuur 19°C
Vochtigheid 49%
Druk 1016 hPa
Zicht 10 km of meer
geen wolken onder 1500 m en geen cumulonimbus

METAR: EDLN 231250Z 27009KT 240V310 CAVOK 19/08 Q1016

Tijdstip: 15:09 (13:09 UTC)

Verwachting

Dit bericht is 2 uur en het 9 minuten geleden gemaakt, om 11:00 UTC
Verwachting geldig van 23 om 12 UTC tot 23 om 21 UTC
Wind 10 kt uit het westen
Zicht 10 km of meer
Verspreide wolken op 4000 ft
Wijzigt naar
van 23 om 17 UTC tot 23 om 20 UTC
Wind 5 kt uit het westen

TAF: EDLN 231100Z 2312/2321 27010KT 9999 SCT040 BECMG 2317/2320 28005KT

Waarnemingen en weersverwachtingen van meer dan 4000 vliegvelden (METAR en TAF).

De beschikbare stations zijn de gele en rode punten op de kaart.

Ga met uw muis naar het station om de naam te zien.

Klik dan om waarnemingen en weersverwachtingen te zien.

kaart wijzigen: klik op de groene knoppen met een zwart kruis om in te zoomen, op de groene knop met een streepje om uit te zoomen of op de groene pijlen voor aangrenzende kaarten.


METAR-TAF: